createdAt,value
2019-01-18T00:04:26.849Z,4.93
2019-01-18T00:09:31.539Z,9.90
2019-01-18T00:14:36.163Z,6.70
2019-01-18T00:19:40.735Z,7.27
2019-01-18T00:25:09.283Z,6.30
2019-01-18T00:30:14.017Z,6.20
2019-01-18T00:35:18.568Z,7.63
2019-01-18T00:40:23.791Z,6.53
2019-01-18T00:45:28.469Z,10.13
2019-01-18T00:50:33.050Z,8.33
2019-01-18T00:55:37.751Z,5.47
2019-01-18T01:00:42.459Z,7.30
2019-01-18T01:05:47.183Z,6.00
2019-01-18T01:10:51.808Z,4.90
2019-01-18T01:15:56.618Z,5.70
2019-01-18T01:21:05.231Z,6.00
2019-01-18T01:26:09.903Z,3.93
2019-01-18T01:31:14.716Z,5.97
2019-01-18T01:36:19.391Z,2.67
2019-01-18T01:41:24.027Z,10.90
2019-01-18T01:46:28.671Z,7.50
2019-01-18T01:51:33.259Z,6.77
2019-01-18T01:56:38.130Z,5.70
2019-01-18T02:01:42.736Z,5.80
2019-01-18T02:06:47.224Z,7.47
2019-01-18T02:11:51.909Z,9.17
2019-01-18T02:16:56.638Z,6.13
2019-01-18T02:22:02.388Z,5.97
2019-01-18T02:27:07.230Z,6.00
2019-01-18T02:32:11.847Z,4.43
2019-01-18T02:37:16.467Z,5.33
2019-01-18T02:42:21.106Z,7.37
2019-01-18T02:47:25.807Z,5.27
2019-01-18T02:52:30.383Z,6.03
2019-01-18T02:57:35.335Z,4.60
2019-01-18T03:02:39.947Z,8.27
2019-01-18T03:07:44.610Z,8.37
2019-01-18T03:12:49.222Z,8.23
2019-01-18T03:17:53.930Z,8.33
2019-01-18T03:22:58.463Z,8.33
2019-01-18T03:28:03.090Z,10.23
2019-01-18T03:33:09.017Z,10.97
2019-01-18T03:38:13.653Z,6.20
2019-01-18T03:43:24.656Z,9.10
2019-01-18T03:48:29.260Z,7.17
2019-01-18T03:53:33.984Z,7.80
2019-01-18T03:58:38.511Z,7.50
2019-01-18T04:03:43.195Z,5.90
2019-01-18T04:08:47.656Z,3.43
2019-01-18T04:13:52.425Z,5.63
2019-01-18T04:18:57.036Z,3.97
2019-01-18T04:24:01.551Z,7.17
2019-01-18T04:29:06.291Z,18.40
2019-01-18T04:34:10.775Z,7.40
2019-01-18T04:39:18.616Z,12.83
2019-01-18T04:44:23.141Z,11.13
2019-01-18T04:49:27.775Z,11.90
2019-01-18T04:54:32.411Z,8.97
2019-01-18T04:59:36.976Z,6.93
2019-01-18T05:04:41.682Z,7.13
2019-01-18T05:09:46.248Z,6.83
2019-01-18T05:14:50.786Z,10.47
2019-01-18T05:19:55.368Z,10.73
2019-01-18T05:25:00.096Z,12.07
2019-01-18T05:30:06.927Z,11.30
2019-01-18T05:35:11.683Z,11.90
2019-01-18T05:40:17.199Z,11.43
2019-01-18T05:45:22.236Z,11.70
2019-01-18T05:50:30.771Z,13.90
2019-01-18T05:55:35.540Z,9.93
2019-01-18T06:00:43.582Z,9.33
2019-01-18T06:05:48.486Z,12.07
2019-01-18T06:10:53.154Z,10.10
2019-01-18T06:15:57.807Z,8.00
2019-01-18T06:21:02.422Z,10.90
2019-01-18T06:26:07.270Z,10.80
2019-01-18T06:31:12.133Z,11.30
2019-01-18T06:36:19.998Z,11.87
2019-01-18T06:41:40.679Z,18.50
2019-01-18T06:46:45.110Z,13.17
2019-01-18T06:51:49.806Z,19.00
2019-01-18T06:56:54.280Z,10.53
2019-01-18T07:01:59.206Z,21.03
2019-01-18T07:07:03.882Z,18.30
2019-01-18T07:12:08.701Z,20.20
2019-01-18T07:17:13.210Z,20.53
2019-01-18T07:22:17.874Z,28.83
2019-01-18T07:27:22.329Z,21.17
2019-01-18T07:32:26.770Z,17.70
2019-01-18T07:37:31.308Z,18.73
2019-01-18T07:42:36.071Z,21.37
2019-01-18T07:47:40.874Z,23.53
2019-01-18T07:52:45.515Z,15.67
2019-01-18T07:57:50.017Z,44.67
2019-01-18T08:02:54.885Z,15.23
2019-01-18T08:07:59.599Z,15.80
2019-01-18T08:13:04.270Z,24.63
2019-01-18T08:18:08.990Z,29.60
2019-01-18T08:23:13.671Z,31.07
2019-01-18T08:28:18.212Z,38.47
2019-01-18T08:33:22.711Z,36.03
2019-01-18T08:38:27.453Z,37.30
2019-01-18T08:43:31.971Z,43.40
2019-01-18T08:48:36.574Z,27.37
2019-01-18T08:53:41.146Z,25.57
2019-01-18T08:58:45.614Z,31.27
2019-01-18T09:03:50.130Z,26.03
2019-01-18T09:08:54.770Z,30.77
2019-01-18T09:14:00.489Z,28.07
2019-01-18T09:19:05.118Z,28.60
2019-01-18T09:24:09.840Z,28.33
2019-01-18T09:29:14.294Z,35.90
2019-01-18T09:34:18.794Z,28.27
2019-01-18T09:39:23.270Z,37.97
2019-01-18T09:44:28.116Z,29.73
2019-01-18T09:49:38.677Z,29.90
2019-01-18T09:54:43.292Z,46.23
2019-01-18T09:59:47.863Z,57.17
2019-01-18T10:04:52.459Z,44.07
2019-01-18T10:09:57.074Z,51.40
2019-01-18T10:15:01.596Z,90.80
2019-01-18T10:20:07.590Z,50.93
2019-01-18T10:25:13.262Z,58.83
2019-01-18T10:30:20.522Z,90.93
2019-01-18T10:35:27.222Z,49.90
2019-01-18T10:40:37.667Z,41.80
2019-01-18T10:45:42.637Z,37.57
2019-01-18T10:50:47.206Z,40.17
2019-01-18T10:55:51.742Z,31.50
2019-01-18T11:00:56.379Z,36.73
2019-01-18T11:06:01.035Z,30.67
2019-01-18T11:11:05.654Z,37.03
2019-01-18T11:16:10.331Z,27.97
2019-01-18T11:21:18.108Z,30.87
2019-01-18T11:26:22.979Z,29.47
2019-01-18T11:31:27.462Z,32.27
2019-01-18T11:36:32.268Z,26.43
2019-01-18T11:41:36.910Z,32.40
2019-01-18T11:46:41.434Z,36.33
2019-01-18T11:51:45.971Z,29.20
2019-01-18T11:56:52.007Z,29.90
2019-01-18T12:01:56.696Z,28.80
2019-01-18T12:07:01.323Z,25.13
2019-01-18T12:12:05.822Z,32.20
2019-01-18T12:17:10.343Z,27.33
2019-01-18T12:22:15.131Z,28.57
2019-01-18T12:27:19.718Z,32.80
2019-01-18T12:32:28.749Z,28.37
2019-01-18T12:37:30.535Z,29.23
2019-01-18T12:42:35.343Z,35.63
2019-01-18T12:47:40.186Z,31.60
2019-01-18T12:52:48.063Z,32.63
2019-01-18T12:57:52.713Z,31.40
2019-01-18T13:02:57.792Z,32.77
2019-01-18T13:08:02.314Z,26.00
2019-01-18T13:13:06.998Z,31.57
2019-01-18T13:18:11.937Z,25.80
2019-01-18T13:23:16.593Z,22.40
2019-01-18T13:28:21.399Z,23.30
2019-01-18T13:33:26.015Z,19.73
2019-01-18T13:38:30.779Z,21.00
2019-01-18T13:43:35.409Z,24.07
2019-01-18T13:48:40.059Z,23.87
2019-01-18T13:53:44.744Z,23.87
2019-01-18T13:58:49.301Z,24.90
2019-01-18T14:03:54.234Z,22.43
2019-01-18T14:08:59.049Z,21.73
2019-01-18T14:14:03.655Z,26.03
2019-01-18T14:19:08.158Z,28.07
2019-01-18T14:24:12.702Z,28.93
2019-01-18T14:29:17.536Z,29.70
2019-01-18T14:34:22.059Z,28.40
2019-01-18T14:39:26.587Z,34.53
2019-01-18T14:44:31.426Z,31.90
2019-01-18T14:49:35.918Z,33.53
2019-01-18T14:54:40.379Z,29.67
2019-01-18T14:59:44.902Z,26.27
2019-01-18T15:04:49.650Z,33.03
2019-01-18T15:09:57.589Z,28.67
2019-01-18T15:15:00.856Z,27.47
2019-01-18T15:20:07.914Z,30.60
2019-01-18T15:25:12.580Z,30.83
2019-01-18T15:30:22.415Z,31.17
2019-01-18T15:35:35.230Z,33.97
2019-01-18T15:40:43.831Z,33.07
2019-01-18T15:45:48.379Z,32.43
2019-01-18T15:50:52.995Z,30.87
2019-01-18T15:55:57.675Z,27.40
2019-01-18T16:01:02.084Z,24.50
2019-01-18T16:06:06.843Z,24.97
2019-01-18T16:11:11.487Z,20.97
2019-01-18T16:16:29.501Z,36.93
2019-01-18T16:21:34.221Z,39.73
2019-01-18T16:26:40.875Z,37.80
2019-01-18T16:31:48.649Z,38.67
2019-01-18T16:36:53.234Z,42.17
2019-01-18T16:41:58.129Z,35.50
2019-01-18T16:47:02.802Z,35.83
2019-01-18T16:52:07.403Z,32.77
2019-01-18T16:57:12.046Z,22.47
2019-01-18T17:02:16.753Z,28.43
2019-01-18T17:07:21.478Z,23.23
2019-01-18T17:12:26.131Z,19.83
2019-01-18T17:17:30.702Z,19.03
2019-01-18T17:22:35.434Z,25.83
2019-01-18T17:27:43.202Z,37.07
2019-01-18T17:32:48.178Z,28.33
2019-01-18T17:37:56.902Z,31.97
2019-01-18T17:43:43.091Z,21.13
2019-01-18T17:49:17.751Z,27.97
2019-01-18T17:54:37.810Z,27.77
2019-01-18T18:00:38.616Z,29.00
2019-01-18T18:06:07.443Z,27.10
2019-01-18T18:11:36.485Z,26.07
2019-01-18T18:17:33.577Z,20.80
2019-01-18T18:23:15.348Z,37.20
2019-01-18T18:29:13.432Z,27.43
2019-01-18T18:34:52.264Z,21.60
2019-01-18T18:40:35.083Z,29.53
2019-01-18T18:46:41.490Z,28.40
2019-01-18T18:52:34.902Z,20.97
2019-01-18T18:58:28.998Z,26.67
2019-01-18T19:04:03.666Z,31.27
2019-01-18T19:10:04.577Z,26.20
2019-01-18T19:16:07.139Z,25.63
2019-01-18T19:21:51.910Z,27.23
2019-01-18T19:27:18.318Z,32.07
2019-01-18T19:33:03.782Z,19.63
2019-01-18T19:38:54.511Z,21.27
2019-01-18T19:44:31.842Z,20.97
2019-01-18T19:49:52.103Z,19.33
2019-01-18T19:55:31.371Z,25.77
2019-01-18T20:01:02.391Z,26.70
2019-01-18T20:06:57.407Z,16.87
2019-01-18T20:12:19.807Z,17.47
2019-01-18T20:17:49.237Z,15.23
2019-01-18T20:23:29.698Z,16.33
2019-01-18T20:28:59.918Z,18.97
2019-01-18T20:34:35.763Z,18.70
2019-01-18T20:40:37.051Z,19.77
2019-01-18T20:45:56.701Z,23.60
2019-01-18T20:51:41.112Z,15.57
2019-01-18T20:57:38.910Z,19.27
2019-01-18T21:03:15.863Z,22.23
2019-01-18T21:09:08.820Z,16.97
2019-01-18T21:14:41.879Z,21.93
2019-01-18T21:20:55.204Z,18.43
2019-01-18T21:26:18.843Z,14.33
2019-01-18T21:31:51.662Z,19.17
2019-01-18T21:37:31.757Z,17.83
2019-01-18T21:43:29.596Z,18.23
2019-01-18T21:49:00.403Z,17.63
2019-01-18T21:54:40.007Z,22.33
2019-01-18T22:00:19.111Z,19.13
2019-01-18T22:05:55.793Z,17.80
2019-01-18T22:11:25.791Z,19.40
2019-01-18T22:17:08.466Z,20.57
2019-01-18T22:22:39.406Z,22.93
2019-01-18T22:28:28.421Z,17.10
2019-01-18T22:33:44.637Z,19.50
2019-01-18T22:39:42.819Z,17.57
2019-01-18T22:45:14.226Z,16.17
2019-01-18T22:51:17.775Z,22.03
2019-01-18T22:56:58.366Z,21.37
2019-01-18T23:02:17.523Z,17.40
2019-01-18T23:08:14.974Z,19.03
2019-01-18T23:13:34.986Z,14.97
2019-01-18T23:18:49.911Z,19.27
2019-01-18T23:24:19.381Z,19.20
2019-01-18T23:29:37.712Z,16.70
2019-01-18T23:34:54.752Z,19.97
2019-01-18T23:40:17.178Z,17.87
2019-01-18T23:46:02.015Z,16.93
2019-01-18T23:51:29.539Z,17.97
2019-01-18T23:56:52.079Z,21.60
